createdAt,value
2023-02-11T00:01:50.464Z,100631.58
2023-02-11T00:03:53.733Z,100631.71
2023-02-11T00:06:01.021Z,100632.50
2023-02-11T00:08:03.880Z,100636.27
2023-02-11T00:10:08.991Z,100628.64
2023-02-11T00:12:12.153Z,100623.95
2023-02-11T00:14:15.126Z,100620.08
2023-02-11T00:16:20.895Z,100614.18
2023-02-11T00:18:24.370Z,100614.23
2023-02-11T00:20:27.278Z,100613.36
2023-02-11T00:22:31.757Z,100605.67
2023-02-11T00:24:36.239Z,100602.41
2023-02-11T00:26:39.253Z,100596.55
2023-02-11T00:28:42.759Z,100596.66
2023-02-11T00:30:54.976Z,100590.64
2023-02-11T00:32:58.099Z,100585.70
2023-02-11T00:35:01.414Z,100584.47
2023-02-11T00:37:05.458Z,100584.36
2023-02-11T00:39:09.424Z,100575.61
2023-02-11T00:41:16.128Z,100570.20
2023-02-11T00:43:18.705Z,100572.24
2023-02-11T00:45:21.560Z,100572.52
2023-02-11T00:47:24.538Z,100568.53
2023-02-11T00:49:27.384Z,100570.31
2023-02-11T00:51:30.228Z,100573.10
2023-02-11T00:53:36.171Z,100575.56
2023-02-11T00:55:38.822Z,100584.30
2023-02-11T00:57:41.676Z,100583.21
2023-02-11T00:59:44.489Z,100586.10
2023-02-11T01:01:47.164Z,100583.76
2023-02-11T01:03:49.861Z,100582.02
2023-02-11T01:05:53.047Z,100579.04
2023-02-11T01:07:56.249Z,100587.05
2023-02-11T01:09:59.728Z,100587.25
2023-02-11T01:12:05.971Z,100582.79
2023-02-11T01:14:09.250Z,100584.88
2023-02-11T01:16:14.875Z,100578.36
2023-02-11T01:18:17.826Z,100577.35
2023-02-11T01:20:25.696Z,100576.41
2023-02-11T01:22:29.556Z,100571.48
2023-02-11T01:24:32.402Z,100568.64
2023-02-11T01:26:36.082Z,100566.18
2023-02-11T01:28:40.188Z,100563.38
2023-02-11T01:30:43.654Z,100563.77
2023-02-11T01:32:46.496Z,100557.79
2023-02-11T01:34:50.349Z,100554.81
2023-02-11T01:37:03.170Z,100547.39
2023-02-11T01:39:06.007Z,100547.32
2023-02-11T01:41:17.243Z,100542.48
2023-02-11T01:43:20.971Z,100539.22
2023-02-11T01:45:48.917Z,100538.91
2023-02-11T01:47:51.837Z,100535.52
2023-02-11T01:50:01.835Z,100531.98
2023-02-11T01:52:20.126Z,100533.75
2023-02-11T01:54:45.357Z,100530.98
2023-02-11T01:57:10.386Z,100525.36
2023-02-11T01:59:39.940Z,100513.56
2023-02-11T02:01:48.651Z,100505.69
2023-02-11T02:03:56.624Z,100497.50
2023-02-11T02:06:02.660Z,100494.83
2023-02-11T02:08:14.822Z,100496.69
2023-02-11T02:10:22.697Z,100492.31
2023-02-11T02:12:25.397Z,100488.75
2023-02-11T02:14:29.053Z,100485.83
2023-02-11T02:16:34.764Z,100481.17
2023-02-11T02:19:19.759Z,100479.66
2023-02-11T02:21:44.301Z,100481.39
2023-02-11T02:24:00.974Z,100484.58
2023-02-11T02:26:09.654Z,100482.53
2023-02-11T02:28:34.367Z,100479.16
2023-02-11T02:30:58.510Z,100480.09
2023-02-11T02:33:23.244Z,100480.73
2023-02-11T02:35:46.005Z,100481.91
2023-02-11T02:38:20.168Z,100487.77
2023-02-11T02:40:32.765Z,100486.77
2023-02-11T02:42:36.639Z,100482.72
2023-02-11T02:44:39.689Z,100478.77
2023-02-11T02:46:42.542Z,100477.48
2023-02-11T02:48:45.863Z,100470.17
2023-02-11T02:50:50.460Z,100471.55
2023-02-11T02:53:05.305Z,100469.37
2023-02-11T02:55:39.812Z,100471.05
2023-02-11T02:57:59.303Z,100469.19
2023-02-11T03:00:28.659Z,100472.20
2023-02-11T03:02:40.494Z,100475.94
2023-02-11T03:05:02.486Z,100478.52
2023-02-11T03:07:22.172Z,100475.34
2023-02-11T03:09:36.380Z,100467.11
2023-02-11T03:11:40.584Z,100467.92
2023-02-11T03:13:48.543Z,100452.77
2023-02-11T03:15:55.572Z,100446.85
2023-02-11T03:18:02.263Z,100449.25
2023-02-11T03:20:07.426Z,100453.13
2023-02-11T03:22:25.604Z,100467.13
2023-02-11T03:24:34.832Z,100479.61
2023-02-11T03:26:43.074Z,100478.16
2023-02-11T03:29:03.747Z,100478.35
2023-02-11T03:31:22.029Z,100468.70
2023-02-11T03:33:29.291Z,100468.17
2023-02-11T03:35:46.747Z,100456.99
2023-02-11T03:37:57.958Z,100437.59
2023-02-11T03:40:06.711Z,100448.80
2023-02-11T03:42:11.360Z,100452.77
2023-02-11T03:44:16.403Z,100448.96
2023-02-11T03:46:25.786Z,100447.07
2023-02-11T03:48:33.104Z,100442.49
2023-02-11T03:50:37.271Z,100437.97
2023-02-11T03:52:40.202Z,100428.09
2023-02-11T03:54:46.496Z,100402.15
2023-02-11T03:56:54.421Z,100386.66
2023-02-11T03:58:58.094Z,100374.99
2023-02-11T04:01:02.616Z,100369.19
2023-02-11T04:03:06.166Z,100389.77
2023-02-11T04:05:15.036Z,100401.22
2023-02-11T04:07:17.922Z,100395.86
2023-02-11T04:09:20.630Z,100399.91
2023-02-11T04:11:23.320Z,100397.16
2023-02-11T04:13:26.284Z,100383.92
2023-02-11T04:15:28.920Z,100382.95
2023-02-11T04:17:31.533Z,100387.52
2023-02-11T04:19:34.236Z,100405.20
2023-02-11T04:21:36.910Z,100417.60
2023-02-11T04:23:39.732Z,100412.32
2023-02-11T04:25:43.117Z,100404.77
2023-02-11T04:27:46.246Z,100409.67
2023-02-11T04:29:49.699Z,100418.58
2023-02-11T04:31:52.448Z,100422.77
2023-02-11T04:33:55.722Z,100418.20
2023-02-11T04:35:58.545Z,100417.35
2023-02-11T04:38:01.886Z,100409.52
2023-02-11T04:40:05.133Z,100403.27
2023-02-11T04:42:07.916Z,100414.76
2023-02-11T04:44:10.962Z,100404.77
2023-02-11T04:46:13.693Z,100399.17
2023-02-11T04:48:16.405Z,100386.46
2023-02-11T04:50:19.142Z,100374.99
2023-02-11T04:52:23.530Z,100377.77
2023-02-11T04:54:27.195Z,100372.98
2023-02-11T04:56:30.248Z,100369.95
2023-02-11T04:58:32.973Z,100357.89
2023-02-11T05:00:36.311Z,100349.89
2023-02-11T05:02:39.404Z,100352.20
2023-02-11T05:04:42.086Z,100365.55
2023-02-11T05:06:44.717Z,100372.23
2023-02-11T05:08:47.482Z,100354.73
2023-02-11T05:10:50.264Z,100343.71
2023-02-11T05:12:55.404Z,100360.08
2023-02-11T05:15:01.423Z,100370.36
2023-02-11T05:17:07.080Z,100378.31
2023-02-11T05:19:10.060Z,100371.67
2023-02-11T05:21:16.352Z,100363.59
2023-02-11T05:23:20.779Z,100362.85
2023-02-11T05:25:23.666Z,100365.90
2023-02-11T05:27:26.287Z,100381.30
2023-02-11T05:29:28.918Z,100384.23
2023-02-11T05:31:32.757Z,100388.86
2023-02-11T05:33:35.786Z,100384.52
2023-02-11T05:35:38.570Z,100394.59
2023-02-11T05:37:41.146Z,100390.77
2023-02-11T05:39:43.800Z,100390.22
2023-02-11T05:41:46.449Z,100382.91
2023-02-11T05:43:52.529Z,100381.48
2023-02-11T05:45:56.190Z,100392.08
2023-02-11T05:47:59.633Z,100397.25
2023-02-11T05:50:02.651Z,100392.79
2023-02-11T05:52:05.287Z,100386.86
2023-02-11T05:54:09.200Z,100375.55
2023-02-11T05:56:14.524Z,100365.02
2023-02-11T05:58:19.261Z,100364.09
2023-02-11T06:00:22.272Z,100363.09
2023-02-11T06:02:25.833Z,100367.90
2023-02-11T06:04:29.725Z,100370.00
2023-02-11T06:06:33.754Z,100369.40
2023-02-11T06:08:39.066Z,100383.70
2023-02-11T06:10:45.504Z,100390.66
2023-02-11T06:12:48.750Z,100389.00
2023-02-11T06:14:52.256Z,100390.66
2023-02-11T06:16:56.770Z,100395.05
2023-02-11T06:19:00.253Z,100405.73
2023-02-11T06:21:07.879Z,100397.23
2023-02-11T06:23:10.564Z,100394.50
2023-02-11T06:25:13.788Z,100392.95
2023-02-11T06:27:17.517Z,100387.99
2023-02-11T06:29:20.722Z,100377.50
2023-02-11T06:31:23.758Z,100380.00
2023-02-11T06:33:26.572Z,100375.94
2023-02-11T06:35:29.420Z,100372.07
2023-02-11T06:37:34.697Z,100368.40
2023-02-11T06:39:37.785Z,100366.98
2023-02-11T06:41:40.911Z,100366.66
2023-02-11T06:43:44.926Z,100365.77
2023-02-11T06:45:54.544Z,100365.58
2023-02-11T06:47:57.743Z,100362.98
2023-02-11T06:50:03.149Z,100361.58
2023-02-11T06:52:06.203Z,100371.58
2023-02-11T06:54:09.506Z,100376.46
2023-02-11T06:56:16.147Z,100381.67
2023-02-11T06:58:18.822Z,100381.27
2023-02-11T07:00:22.305Z,100381.15
2023-02-11T07:02:25.001Z,100384.27
2023-02-11T07:04:27.683Z,100387.34
2023-02-11T07:06:31.715Z,100382.61
2023-02-11T07:08:37.547Z,100386.03
2023-02-11T07:10:41.054Z,100395.17
2023-02-11T07:12:44.130Z,100392.15
2023-02-11T07:14:46.906Z,100390.21
2023-02-11T07:16:49.941Z,100391.21
2023-02-11T07:18:52.846Z,100392.52
2023-02-11T07:20:55.420Z,100391.58
2023-02-11T07:23:00.027Z,100392.63
2023-02-11T07:25:02.812Z,100401.64
2023-02-11T07:27:05.456Z,100412.14
2023-02-11T07:29:08.376Z,100420.25
2023-02-11T07:31:14.091Z,100418.35
2023-02-11T07:33:17.141Z,100419.77
2023-02-11T07:35:27.562Z,100420.90
2023-02-11T07:37:30.397Z,100414.53
2023-02-11T07:39:33.144Z,100410.58
2023-02-11T07:41:37.862Z,100405.78
2023-02-11T07:43:41.864Z,100403.05
2023-02-11T07:45:44.950Z,100403.66
2023-02-11T07:47:47.650Z,100401.75
2023-02-11T07:49:51.060Z,100402.91
2023-02-11T07:51:53.869Z,100403.06
2023-02-11T07:53:58.758Z,100402.79
2023-02-11T07:56:03.278Z,100402.06
2023-02-11T07:58:05.998Z,100396.44
2023-02-11T08:00:09.411Z,100391.14
2023-02-11T08:02:15.031Z,100391.15
2023-02-11T08:04:17.816Z,100384.23
2023-02-11T08:06:22.464Z,100381.61
2023-02-11T08:08:28.334Z,100387.27
2023-02-11T08:10:31.273Z,100390.28
2023-02-11T08:12:34.500Z,100400.55
2023-02-11T08:14:37.540Z,100407.06
2023-02-11T08:16:41.531Z,100414.46
2023-02-11T08:18:44.659Z,100413.86
2023-02-11T08:20:47.402Z,100410.36
2023-02-11T08:22:50.300Z,100412.02
2023-02-11T08:24:52.990Z,100416.91
2023-02-11T08:26:55.640Z,100424.84
2023-02-11T08:28:59.204Z,100425.65
2023-02-11T08:31:10.048Z,100419.98
2023-02-11T08:33:13.238Z,100411.25
2023-02-11T08:35:15.858Z,100412.44
2023-02-11T08:37:20.266Z,100407.52
2023-02-11T08:39:23.079Z,100398.51
2023-02-11T08:41:26.774Z,100401.02
2023-02-11T08:43:29.960Z,100401.23
2023-02-11T08:45:36.037Z,100408.78
2023-02-11T08:47:39.815Z,100413.63
2023-02-11T08:49:42.504Z,100414.16
2023-02-11T08:51:47.273Z,100415.02
2023-02-11T08:53:51.572Z,100419.56
2023-02-11T08:55:55.809Z,100423.42
2023-02-11T08:57:58.426Z,100424.54
2023-02-11T09:00:01.268Z,100430.85
2023-02-11T09:02:03.939Z,100431.69
2023-02-11T09:04:06.868Z,100420.61
2023-02-11T09:06:11.684Z,100422.61
2023-02-11T09:08:16.908Z,100417.36
2023-02-11T09:10:20.328Z,100412.98
2023-02-11T09:12:23.146Z,100415.15
2023-02-11T09:14:26.332Z,100412.58
2023-02-11T09:16:32.010Z,100408.09
2023-02-11T09:18:34.724Z,100408.86
2023-02-11T09:20:37.748Z,100409.08
2023-02-11T09:22:40.365Z,100409.16
2023-02-11T09:24:43.001Z,100404.44
2023-02-11T09:26:45.656Z,100402.80
2023-02-11T09:28:49.531Z,100403.01
2023-02-11T09:30:52.423Z,100399.08
2023-02-11T09:32:55.227Z,100404.42
2023-02-11T09:34:57.807Z,100408.32
2023-02-11T09:37:00.412Z,100410.67
2023-02-11T09:39:05.644Z,100418.09
2023-02-11T09:41:23.802Z,100420.95
2023-02-11T09:43:45.659Z,100412.99
2023-02-11T09:45:50.141Z,100399.36
2023-02-11T09:47:56.872Z,100400.91
2023-02-11T09:50:06.612Z,100402.00
2023-02-11T09:52:34.095Z,100400.64
2023-02-11T09:54:52.068Z,100390.30
2023-02-11T09:56:56.926Z,100392.75
2023-02-11T09:58:59.793Z,100398.98
2023-02-11T10:01:19.383Z,100410.06
2023-02-11T10:03:41.407Z,100415.23
2023-02-11T10:06:27.840Z,100408.54
2023-02-11T10:08:42.356Z,100418.15
2023-02-11T10:10:54.704Z,100418.87
2023-02-11T10:13:03.273Z,100418.80
2023-02-11T10:15:32.614Z,100423.88
2023-02-11T10:17:44.812Z,100429.27
2023-02-11T10:20:02.830Z,100428.88
2023-02-11T10:22:18.329Z,100435.59
2023-02-11T10:24:22.144Z,100436.40
2023-02-11T10:26:30.919Z,100442.11
2023-02-11T10:28:35.025Z,100442.91
2023-02-11T10:30:46.638Z,100443.69
2023-02-11T10:32:59.704Z,100445.13
2023-02-11T10:35:10.268Z,100444.84
2023-02-11T10:37:14.789Z,100440.37
2023-02-11T10:39:23.898Z,100435.98
2023-02-11T10:41:33.190Z,100431.76
2023-02-11T10:43:37.053Z,100425.56
2023-02-11T10:46:00.292Z,100423.98
2023-02-11T10:48:06.388Z,100427.55
2023-02-11T10:50:23.411Z,100430.38
2023-02-11T10:52:31.743Z,100434.14
2023-02-11T10:54:34.388Z,100433.09
2023-02-11T10:56:44.489Z,100428.77
2023-02-11T10:58:57.543Z,100427.80
2023-02-11T11:01:01.588Z,100426.48
2023-02-11T11:03:18.821Z,100428.03
2023-02-11T11:05:28.604Z,100429.49
2023-02-11T11:07:33.890Z,100437.20
2023-02-11T11:09:47.373Z,100438.77
2023-02-11T11:11:53.893Z,100439.97
2023-02-11T11:13:59.441Z,100445.19
2023-02-11T11:16:09.930Z,100445.82
2023-02-11T11:18:23.016Z,100458.54
2023-02-11T11:20:29.016Z,100456.70
2023-02-11T11:22:31.845Z,100455.39
2023-02-11T11:24:46.602Z,100450.38
2023-02-11T11:26:55.782Z,100449.89
2023-02-11T11:29:08.054Z,100450.40
2023-02-11T11:31:24.644Z,100453.13
2023-02-11T11:33:31.134Z,100457.11
2023-02-11T11:35:33.962Z,100449.70
2023-02-11T11:37:38.762Z,100448.02
2023-02-11T11:39:42.728Z,100444.98
2023-02-11T11:42:01.127Z,100440.92
2023-02-11T11:44:25.405Z,100438.05
2023-02-11T11:46:42.838Z,100436.20
2023-02-11T11:48:50.092Z,100432.70
2023-02-11T11:51:02.213Z,100436.48
2023-02-11T11:53:16.832Z,100436.77
2023-02-11T11:55:27.337Z,100429.33
2023-02-11T11:57:31.372Z,100431.42
2023-02-11T11:59:34.292Z,100428.46
2023-02-11T12:01:46.120Z,100431.52
2023-02-11T12:04:23.257Z,100433.05
2023-02-11T12:06:35.683Z,100432.23
2023-02-11T12:08:59.533Z,100434.89
2023-02-11T12:11:17.895Z,100438.64
2023-02-11T12:13:26.084Z,100438.00
2023-02-11T12:16:02.885Z,100433.38
2023-02-11T12:18:38.611Z,100423.66
2023-02-11T12:21:06.541Z,100421.94
2023-02-11T12:23:30.843Z,100417.21
2023-02-11T12:25:51.088Z,100421.00
2023-02-11T12:28:03.292Z,100422.92
2023-02-11T12:30:15.333Z,100419.36
2023-02-11T12:32:36.417Z,100412.34
2023-02-11T12:35:07.306Z,100405.95
2023-02-11T12:37:31.689Z,100399.05
2023-02-11T12:39:45.189Z,100395.99
2023-02-11T12:42:23.627Z,100399.00
2023-02-11T12:45:03.998Z,100401.06
2023-02-11T12:47:17.948Z,100397.86
2023-02-11T12:50:00.731Z,100400.63
2023-02-11T12:52:36.279Z,100399.92
2023-02-11T12:54:52.180Z,100402.20
2023-02-11T12:57:04.061Z,100401.45
2023-02-11T12:59:15.135Z,100405.34
2023-02-11T13:01:21.709Z,100403.91
2023-02-11T13:03:35.206Z,100405.20
2023-02-11T13:05:51.382Z,100410.67
2023-02-11T13:08:02.043Z,100412.73
2023-02-11T13:10:13.679Z,100412.90
2023-02-11T13:12:36.419Z,100406.52
2023-02-11T13:14:41.170Z,100396.91
2023-02-11T13:16:52.128Z,100388.98
2023-02-11T13:19:10.319Z,100389.35
2023-02-11T13:21:38.901Z,100389.77
2023-02-11T13:24:06.706Z,100388.27
2023-02-11T13:26:19.136Z,100391.16
2023-02-11T13:28:34.648Z,100394.58
2023-02-11T13:30:46.773Z,100393.46
2023-02-11T13:33:00.561Z,100397.73
2023-02-11T13:35:03.722Z,100398.09
2023-02-11T13:37:26.616Z,100395.17
2023-02-11T13:39:29.288Z,100392.60
2023-02-11T13:41:39.146Z,100388.83
2023-02-11T13:43:44.246Z,100388.05
2023-02-11T13:45:49.503Z,100391.75
2023-02-11T13:47:58.571Z,100391.08
2023-02-11T13:50:06.468Z,100387.27
2023-02-11T13:52:31.615Z,100381.95
2023-02-11T13:54:39.591Z,100378.39
2023-02-11T13:56:44.198Z,100386.39
2023-02-11T13:58:49.652Z,100393.37
2023-02-11T14:00:52.909Z,100385.98
2023-02-11T14:03:30.000Z,100385.77
2023-02-11T14:05:52.620Z,100384.89
2023-02-11T14:08:37.462Z,100387.64
2023-02-11T14:10:41.180Z,100386.90
2023-02-11T14:13:04.063Z,100392.20
2023-02-11T14:15:07.987Z,100388.73
2023-02-11T14:17:10.912Z,100388.61
2023-02-11T14:19:44.484Z,100389.83
2023-02-11T14:21:47.909Z,100386.75
2023-02-11T14:23:56.183Z,100383.93
2023-02-11T14:26:28.795Z,100382.98
2023-02-11T14:28:34.405Z,100381.21
2023-02-11T14:30:48.710Z,100384.20
2023-02-11T14:33:03.787Z,100387.98
2023-02-11T14:35:16.028Z,100392.41
2023-02-11T14:37:33.958Z,100391.96
2023-02-11T14:39:52.777Z,100390.77
2023-02-11T14:41:56.138Z,100393.64
2023-02-11T14:44:04.264Z,100395.44
2023-02-11T14:46:08.496Z,100391.15
2023-02-11T14:48:17.836Z,100389.01
2023-02-11T14:50:26.945Z,100391.64
2023-02-11T14:52:33.018Z,100397.16
2023-02-11T14:54:37.035Z,100397.66
2023-02-11T14:56:42.299Z,100402.98
2023-02-11T14:58:51.776Z,100403.36
2023-02-11T15:01:01.422Z,100402.81
2023-02-11T15:03:05.042Z,100406.31
2023-02-11T15:05:34.703Z,100406.53
2023-02-11T15:07:50.536Z,100398.65
2023-02-11T15:09:54.374Z,100396.67
2023-02-11T15:11:58.264Z,100396.33
2023-02-11T15:14:11.064Z,100394.75
2023-02-11T15:16:28.737Z,100395.10
2023-02-11T15:18:42.120Z,100390.59
2023-02-11T15:20:45.224Z,100388.55
2023-02-11T15:22:54.802Z,100389.01
2023-02-11T15:25:06.965Z,100387.55
2023-02-11T15:27:18.607Z,100388.97
2023-02-11T15:29:26.858Z,100390.91
2023-02-11T15:31:35.082Z,100395.29
2023-02-11T15:33:38.223Z,100397.83
2023-02-11T15:35:42.842Z,100403.36
2023-02-11T15:37:48.831Z,100410.34
2023-02-11T15:40:07.652Z,100410.27
2023-02-11T15:42:19.096Z,100410.06
2023-02-11T15:44:30.269Z,100410.75
2023-02-11T15:46:39.954Z,100417.50
2023-02-11T15:48:52.575Z,100417.30
2023-02-11T15:51:03.685Z,100415.98
2023-02-11T15:53:31.612Z,100413.39
2023-02-11T15:55:35.664Z,100417.60
2023-02-11T15:57:53.896Z,100418.14
2023-02-11T15:59:58.743Z,100422.77
2023-02-11T16:02:17.440Z,100419.09
2023-02-11T16:04:23.455Z,100420.11
2023-02-11T16:06:42.650Z,100421.34
2023-02-11T16:09:20.794Z,100423.23
2023-02-11T16:11:38.893Z,100422.29
2023-02-11T16:13:46.500Z,100425.85
2023-02-11T16:15:58.659Z,100432.66
2023-02-11T16:18:04.404Z,100432.99
2023-02-11T16:20:17.698Z,100439.63
2023-02-11T16:22:30.456Z,100442.02
2023-02-11T16:24:35.915Z,100438.05
2023-02-11T16:26:44.032Z,100434.89
2023-02-11T16:28:51.204Z,100436.26
2023-02-11T16:30:56.845Z,100438.22
2023-02-11T16:33:00.955Z,100438.51
2023-02-11T16:35:10.852Z,100439.38
2023-02-11T16:37:13.753Z,100444.14
2023-02-11T16:39:18.146Z,100449.19
2023-02-11T16:41:21.886Z,100452.69
2023-02-11T16:43:24.669Z,100447.55
2023-02-11T16:45:28.519Z,100449.02
2023-02-11T16:47:32.249Z,100450.48
2023-02-11T16:49:41.585Z,100448.63
2023-02-11T16:51:48.436Z,100451.17
2023-02-11T16:53:51.338Z,100451.86
2023-02-11T16:55:54.413Z,100456.80
2023-02-11T16:57:58.391Z,100456.62
2023-02-11T17:00:01.202Z,100458.99
2023-02-11T17:02:04.130Z,100463.26
2023-02-11T17:04:17.882Z,100462.55
2023-02-11T17:06:21.438Z,100464.55
2023-02-11T17:08:24.285Z,100467.45
2023-02-11T17:10:27.092Z,100473.27
2023-02-11T17:12:31.013Z,100471.98
2023-02-11T17:14:34.337Z,100468.61
2023-02-11T17:16:37.192Z,100469.46
2023-02-11T17:18:40.129Z,100470.90
2023-02-11T17:20:44.301Z,100466.25
2023-02-11T17:22:48.221Z,100465.77
2023-02-11T17:24:55.010Z,100466.69
2023-02-11T17:26:59.418Z,100470.70
2023-02-11T17:29:09.055Z,100471.30
2023-02-11T17:31:12.649Z,100473.47
2023-02-11T17:33:19.021Z,100476.55
2023-02-11T17:35:22.499Z,100477.96
2023-02-11T17:37:25.821Z,100473.91
2023-02-11T17:39:29.454Z,100476.27
2023-02-11T17:41:33.293Z,100483.77
2023-02-11T17:43:36.713Z,100483.15
2023-02-11T17:45:42.763Z,100483.30
2023-02-11T17:47:46.149Z,100479.90
2023-02-11T17:49:49.329Z,100478.50
2023-02-11T17:51:52.766Z,100481.94
2023-02-11T17:53:59.197Z,100487.86
2023-02-11T17:56:06.404Z,100489.79
2023-02-11T17:58:09.473Z,100492.48
2023-02-11T18:00:13.098Z,100493.52
2023-02-11T18:02:16.245Z,100491.17
2023-02-11T18:04:19.925Z,100496.56
2023-02-11T18:06:23.149Z,100499.42
2023-02-11T18:08:27.837Z,100499.08
2023-02-11T18:10:31.980Z,100498.64
2023-02-11T18:12:36.335Z,100502.70
2023-02-11T18:14:43.290Z,100498.29
2023-02-11T18:16:48.990Z,100495.70
2023-02-11T18:18:56.219Z,100498.74
2023-02-11T18:21:01.404Z,100499.00
2023-02-11T18:23:05.485Z,100502.92
2023-02-11T18:25:13.346Z,100505.59
2023-02-11T18:27:16.798Z,100505.42
2023-02-11T18:29:19.675Z,100503.77
2023-02-11T18:31:22.858Z,100505.48
2023-02-11T18:33:27.501Z,100501.90
2023-02-11T18:35:32.001Z,100503.30
2023-02-11T18:37:34.686Z,100508.64
2023-02-11T18:39:40.945Z,100509.94
2023-02-11T18:41:47.456Z,100505.09
2023-02-11T18:43:58.467Z,100500.80
2023-02-11T18:46:09.554Z,100505.98
2023-02-11T18:48:15.487Z,100504.85
2023-02-11T18:50:22.779Z,100504.08
2023-02-11T18:52:26.371Z,100503.32
2023-02-11T18:54:29.849Z,100510.38
2023-02-11T18:56:34.195Z,100515.77
2023-02-11T18:58:41.302Z,100514.86
2023-02-11T19:00:47.506Z,100521.06
2023-02-11T19:02:53.037Z,100521.66
2023-02-11T19:04:57.610Z,100524.45
2023-02-11T19:07:03.801Z,100525.91
2023-02-11T19:09:11.232Z,100535.63
2023-02-11T19:11:16.245Z,100538.55
2023-02-11T19:13:19.613Z,100537.66
2023-02-11T19:15:24.043Z,100543.08
2023-02-11T19:17:27.937Z,100539.63
2023-02-11T19:19:36.878Z,100540.23
2023-02-11T19:21:44.164Z,100542.81
2023-02-11T19:23:51.896Z,100544.66
2023-02-11T19:25:58.311Z,100542.17
2023-02-11T19:28:03.226Z,100539.54
2023-02-11T19:30:08.154Z,100536.79
2023-02-11T19:32:12.868Z,100538.80
2023-02-11T19:34:17.598Z,100544.27
2023-02-11T19:36:21.850Z,100548.58
2023-02-11T19:38:28.452Z,100549.55
2023-02-11T19:40:34.804Z,100542.54
2023-02-11T19:42:39.209Z,100540.16
2023-02-11T19:44:42.431Z,100537.20
2023-02-11T19:46:52.776Z,100536.01
2023-02-11T19:48:55.775Z,100532.65
2023-02-11T19:50:59.015Z,100537.63
2023-02-11T19:53:02.688Z,100542.61
2023-02-11T19:55:05.678Z,100539.23
2023-02-11T19:57:09.857Z,100535.92
2023-02-11T19:59:15.496Z,100536.59
2023-02-11T20:01:21.984Z,100535.74
2023-02-11T20:03:25.560Z,100537.28
2023-02-11T20:05:30.674Z,100548.84
2023-02-11T20:07:38.040Z,100555.29
2023-02-11T20:09:42.643Z,100561.43
2023-02-11T20:11:49.069Z,100561.78
2023-02-11T20:13:53.088Z,100562.84
2023-02-11T20:15:56.004Z,100567.02
2023-02-11T20:18:01.707Z,100569.06
2023-02-11T20:20:11.329Z,100572.80
2023-02-11T20:22:16.594Z,100576.63
2023-02-11T20:24:22.734Z,100582.35
2023-02-11T20:26:32.997Z,100579.69
2023-02-11T20:28:37.267Z,100578.46
2023-02-11T20:30:41.479Z,100577.90
2023-02-11T20:32:44.790Z,100577.67
2023-02-11T20:34:47.678Z,100582.93
2023-02-11T20:36:52.324Z,100578.68
2023-02-11T20:38:56.684Z,100577.33
2023-02-11T20:41:07.990Z,100582.60
2023-02-11T20:43:12.328Z,100584.64
2023-02-11T20:45:16.248Z,100583.31
2023-02-11T20:47:20.387Z,100578.25
2023-02-11T20:49:25.191Z,100577.19
2023-02-11T20:51:33.048Z,100581.54
2023-02-11T20:53:39.997Z,100596.16
2023-02-11T20:55:44.047Z,100604.48
2023-02-11T20:57:47.383Z,100603.54
2023-02-11T20:59:50.498Z,100597.32
2023-02-11T21:01:56.038Z,100599.55
2023-02-11T21:04:06.795Z,100599.20
2023-02-11T21:06:11.862Z,100595.00
2023-02-11T21:08:16.238Z,100599.73
2023-02-11T21:10:24.129Z,100602.41
2023-02-11T21:12:28.646Z,100604.57
2023-02-11T21:14:34.199Z,100604.42
2023-02-11T21:16:47.715Z,100608.40
2023-02-11T21:18:52.981Z,100609.61
2023-02-11T21:20:59.127Z,100609.93
2023-02-11T21:23:02.403Z,100603.86
2023-02-11T21:25:08.690Z,100604.14
2023-02-11T21:27:12.347Z,100604.91
2023-02-11T21:29:17.225Z,100607.64
2023-02-11T21:31:34.061Z,100607.55
2023-02-11T21:33:39.791Z,100607.36
2023-02-11T21:35:43.248Z,100605.52
2023-02-11T21:37:48.168Z,100603.71
2023-02-11T21:39:51.029Z,100606.52
2023-02-11T21:41:55.973Z,100613.20
2023-02-11T21:43:59.820Z,100614.76
2023-02-11T21:46:08.861Z,100611.81
2023-02-11T21:48:13.208Z,100618.62
2023-02-11T21:50:16.169Z,100613.89
2023-02-11T21:52:19.558Z,100615.43
2023-02-11T21:54:25.910Z,100615.62
2023-02-11T21:56:31.466Z,100618.59
2023-02-11T21:58:35.706Z,100611.40
2023-02-11T22:00:40.890Z,100610.92
2023-02-11T22:02:44.229Z,100610.90
2023-02-11T22:04:47.866Z,100609.95
2023-02-11T22:06:52.782Z,100612.49
2023-02-11T22:09:10.730Z,100617.85
2023-02-11T22:11:14.525Z,100623.67
2023-02-11T22:13:17.137Z,100620.05
2023-02-11T22:15:20.487Z,100625.67
2023-02-11T22:17:23.398Z,100627.11
2023-02-11T22:19:26.070Z,100622.32
2023-02-11T22:21:29.697Z,100617.99
2023-02-11T22:23:33.439Z,100620.21
2023-02-11T22:25:36.848Z,100622.33
2023-02-11T22:27:40.828Z,100624.97
2023-02-11T22:29:43.904Z,100624.77
2023-02-11T22:31:47.720Z,100627.29
2023-02-11T22:33:50.363Z,100625.48
2023-02-11T22:36:06.489Z,100629.80
2023-02-11T22:38:10.507Z,100631.64
2023-02-11T22:40:14.457Z,100636.86
2023-02-11T22:42:17.477Z,100637.66
2023-02-11T22:44:21.898Z,100632.83
2023-02-11T22:46:25.264Z,100632.26
2023-02-11T22:48:28.280Z,100634.36
2023-02-11T22:50:31.025Z,100640.34
2023-02-11T22:52:36.331Z,100642.36
2023-02-11T22:54:38.955Z,100647.41
2023-02-11T22:56:42.555Z,100644.95
2023-02-11T22:58:45.310Z,100644.98
2023-02-11T23:00:48.336Z,100648.34
2023-02-11T23:02:51.115Z,100652.93
2023-02-11T23:04:54.523Z,100651.53
2023-02-11T23:06:57.529Z,100651.77
2023-02-11T23:09:00.308Z,100645.70
2023-02-11T23:11:09.806Z,100648.20
2023-02-11T23:13:12.914Z,100650.89
2023-02-11T23:15:15.501Z,100653.02
2023-02-11T23:17:19.631Z,100654.86
2023-02-11T23:19:22.857Z,100658.17
2023-02-11T23:21:28.669Z,100661.63
2023-02-11T23:23:31.465Z,100659.24
2023-02-11T23:25:34.946Z,100657.16
2023-02-11T23:27:38.067Z,100657.91
2023-02-11T23:29:40.896Z,100663.98
2023-02-11T23:31:46.231Z,100664.64
2023-02-11T23:33:49.311Z,100668.34
2023-02-11T23:35:52.153Z,100663.73
2023-02-11T23:37:55.055Z,100663.06
2023-02-11T23:39:57.978Z,100658.81
2023-02-11T23:42:01.595Z,100650.61
2023-02-11T23:44:04.794Z,100648.20
2023-02-11T23:46:07.970Z,100650.86
2023-02-11T23:48:10.898Z,100657.71
2023-02-11T23:50:14.230Z,100661.19
2023-02-11T23:52:16.878Z,100664.38
2023-02-11T23:54:20.027Z,100659.62
2023-02-11T23:56:28.206Z,100656.97
2023-02-11T23:58:30.962Z,100654.41
